Sutter Island, California
Current Conditions -  °F | °C
As of 11:53 PM on Thursday 18 Dec 2014 (Local Time) from KSAC Reporting Station
Overcast Overcast  
Wind Chill: 52°   Ceiling: 10000
Heat Index: 52°   Visibility: 10mi
Dew Point: 48°   Wind: 7mph
Humidity: 86%   Direction: 130°SE
Pressure: 30.17"   Gusts: NA
Location:  38.3168°N, 121.532°W
Report Text: KSAC 190753Z AUTO 13006KT 10SM OVC100 11/09 A3017 RMK AO2 SLP217 T01110089 401610094
Loading
Personal Weather Stations






























Interactive Weather Map New forecast layout! Learn more

10-Day Weather Forecast

Advertisements
Track Severe Weather on mobile